Time,TemperatureF,DewpointF,PressureIn,WindDirection,WindDirectionDegrees,WindSpeedMPH,WindSpeedGustMPH,Humidity,HourlyPrecipIn,Conditions,Clouds,dailyrainin,SoftwareType,DateUTC
2013-03-19 00:00:00,28.8,26.8,30.22,SSE,158,0.0,0.0,92,0.00,,,0.00,VWS V13.01,2013-03-19 04:00:00,
2013-03-19 00:02:00,28.8,26.8,30.21,SSE,158,0.0,0.0,92,0.00,,,0.00,VWS V13.01,2013-03-19 04:02:00,
2013-03-19 00:03:00,28.8,26.8,30.21,SSE,158,0.0,0.0,92,0.00,,,0.00,VWS V13.01,2013-03-19 04:03:00,
2013-03-19 00:08:00,28.7,26.9,30.21,SSE,158,0.0,0.0,93,0.00,,,0.00,VWS V13.01,2013-03-19 04:08:00,
2013-03-19 00:13:00,28.7,26.9,30.21,SSE,157,0.0,0.0,93,0.00,,,0.00,VWS V13.01,2013-03-19 04:13:00,
2013-03-19 00:18:00,28.7,26.9,30.20,SW,222,0.0,0.0,93,0.00,,,0.00,VWS V13.01,2013-03-19 04:18:00,
2013-03-19 00:23:00,28.7,26.9,30.19,SW,222,0.0,0.0,93,0.00,,,0.00,VWS V13.01,2013-03-19 04:23:00,
2013-03-19 00:28:00,28.7,26.9,30.19,SW,222,0.0,0.0,93,0.00,,,0.00,VWS V13.01,2013-03-19 04:28:00,
2013-03-19 00:33:00,28.7,26.9,30.18,SW,222,0.0,0.0,93,0.00,,,0.00,VWS V13.01,2013-03-19 04:33:00,
2013-03-19 00:38:00,28.8,27.0,30.18,ESE,105,0.0,0.0,93,0.00,,,0.00,VWS V13.01,2013-03-19 04:38:00,
2013-03-19 00:43:00,28.8,27.3,30.17,SW,219,0.0,0.0,94,0.00,,,0.00,VWS V13.01,2013-03-19 04:43:00,
2013-03-19 00:48:00,28.7,27.2,30.17,SSW,207,1.0,1.0,94,0.00,,,0.00,VWS V13.01,2013-03-19 04:48:00,
2013-03-19 00:54:00,28.8,27.3,30.17,SSW,202,0.0,1.0,94,0.00,,,0.00,VWS V13.01,2013-03-19 04:54:00,
2013-03-19 00:59:00,28.8,27.3,30.17,SSW,202,0.0,1.0,94,0.00,,,0.00,VWS V13.01,2013-03-19 04:59:00,
2013-03-19 01:04:00,28.8,27.3,30.16,SSW,202,0.0,1.0,94,0.00,,,0.00,VWS V13.01,2013-03-19 05:04:00,
2013-03-19 01:09:00,28.8,27.3,30.15,SSW,202,0.0,1.0,94,0.00,,,0.00,VWS V13.01,2013-03-19 05:09:00,
2013-03-19 01:14:00,28.8,27.3,30.15,SSW,202,0.0,1.0,94,0.00,,,0.00,VWS V13.01,2013-03-19 05:14:00,
2013-03-19 01:19:00,28.8,27.3,30.15,SSW,202,0.0,1.0,94,0.00,,,0.00,VWS V13.01,2013-03-19 05:19:00,
2013-03-19 01:24:00,28.8,27.3,30.14,SSW,202,0.0,1.0,94,0.00,,,0.00,VWS V13.01,2013-03-19 05:24:00,
2013-03-19 01:29:00,28.8,27.3,30.14,SSW,202,0.0,1.0,94,0.00,,,0.00,VWS V13.01,2013-03-19 05:29:00,
2013-03-19 01:34:00,28.8,27.3,30.13,SSW,202,0.0,0.0,94,0.00,,,0.00,VWS V13.01,2013-03-19 05:34:00,
2013-03-19 01:39:00,28.9,27.6,30.12,SSW,202,0.0,1.0,95,0.00,,,0.00,VWS V13.01,2013-03-19 05:39:00,
2013-03-19 01:44:00,28.9,27.6,30.12,SSW,202,0.0,1.0,95,0.00,,,0.00,VWS V13.01,2013-03-19 05:44:00,
2013-03-19 01:49:00,28.9,27.6,30.12,SSW,202,0.0,1.0,95,0.00,,,0.00,VWS V13.01,2013-03-19 05:49:00,
2013-03-19 01:54:00,29.0,27.8,30.11,East,101,0.0,1.0,95,0.00,,,0.00,VWS V13.01,2013-03-19 05:54:00,
2013-03-19 01:59:00,29.0,27.8,30.11,East,101,0.0,1.0,95,0.00,,,0.00,VWS V13.01,2013-03-19 05:59:00,
2013-03-19 02:04:00,29.0,27.8,30.11,West,262,0.0,1.0,95,0.00,,,0.00,VWS V13.01,2013-03-19 06:04:00,
2013-03-19 02:10:00,29.1,27.9,30.10,East,79,0.0,1.0,95,0.00,,,0.00,VWS V13.01,2013-03-19 06:10:00,
2013-03-19 02:15:00,29.1,27.9,30.10,East,95,1.0,2.0,95,0.00,,,0.00,VWS V13.01,2013-03-19 06:15:00,
2013-03-19 02:20:00,29.1,27.9,30.09,ENE,61,0.0,2.0,95,0.00,,,0.00,VWS V13.01,2013-03-19 06:20:00,
2013-03-19 02:25:00,29.2,28.0,30.09,NE,54,0.0,2.0,95,0.00,,,0.00,VWS V13.01,2013-03-19 06:25:00,
2013-03-19 02:30:00,29.2,28.0,30.09,NE,54,0.0,2.0,95,0.00,,,0.00,VWS V13.01,2013-03-19 06:30:00,
2013-03-19 02:35:00,29.2,28.0,30.09,NE,54,0.0,1.0,95,0.00,,,0.00,VWS V13.01,2013-03-19 06:35:00,
2013-03-19 02:40:00,29.3,28.0,30.08,NE,54,0.0,1.0,95,0.00,,,0.00,VWS V13.01,2013-03-19 06:40:00,
2013-03-19 02:45:00,29.3,28.0,30.08,NE,54,0.0,1.0,95,0.00,,,0.00,VWS V13.01,2013-03-19 06:45:00,
2013-03-19 02:50:00,29.5,28.5,30.08,NE,54,0.0,1.0,96,0.00,,,0.00,VWS V13.01,2013-03-19 06:50:00,
2013-03-19 02:55:00,29.6,28.6,30.07,NE,54,0.0,1.0,96,0.00,,,0.00,VWS V13.01,2013-03-19 06:55:00,
2013-03-19 03:00:00,29.7,28.7,30.07,NE,54,0.0,1.0,96,0.00,,,0.00,VWS V13.01,2013-03-19 07:00:00,
2013-03-19 03:05:00,29.7,28.7,30.07,NE,54,0.0,0.0,96,0.00,,,0.00,VWS V13.01,2013-03-19 07:05:00,
2013-03-19 03:10:00,29.9,28.9,30.07,ENE,59,0.0,0.0,96,0.00,,,0.00,VWS V13.01,2013-03-19 07:10:00,
2013-03-19 03:15:00,30.0,29.0,30.06,ENE,59,0.0,0.0,96,0.00,,,0.00,VWS V13.01,2013-03-19 07:15:00,
2013-03-19 03:20:00,30.1,29.1,30.06,East,87,0.0,0.0,96,0.00,,,0.00,VWS V13.01,2013-03-19 07:20:00,
2013-03-19 03:25:00,30.2,29.2,30.06,East,87,0.0,0.0,96,0.00,,,0.00,VWS V13.01,2013-03-19 07:25:00,
2013-03-19 03:30:00,30.2,29.2,30.06,SE,134,0.0,0.0,96,0.00,,,0.00,VWS V13.01,2013-03-19 07:30:00,
2013-03-19 03:35:00,30.2,29.2,30.06,SE,144,0.0,0.0,96,0.00,,,0.00,VWS V13.01,2013-03-19 07:35:00,
2013-03-19 03:40:00,30.2,29.2,30.06,SE,144,0.0,0.0,96,0.00,,,0.00,VWS V13.01,2013-03-19 07:40:00,
2013-03-19 03:46:00,30.2,29.2,30.07,SE,144,0.0,0.0,96,0.00,,,0.00,VWS V13.01,2013-03-19 07:46:00,
2013-03-19 03:51:00,30.3,29.3,30.06,SE,144,0.0,0.0,96,0.00,,,0.00,VWS V13.01,2013-03-19 07:51:00,
2013-03-19 03:56:00,30.3,29.3,30.06,SE,144,0.0,0.0,96,0.00,,,0.00,VWS V13.01,2013-03-19 07:56:00,
2013-03-19 04:01:00,30.3,29.3,30.05,SSE,157,0.0,0.0,96,0.00,,,0.00,VWS V13.01,2013-03-19 08:01:00,
2013-03-19 04:06:00,30.3,29.3,30.05,SSE,157,0.0,0.0,96,0.00,,,0.00,VWS V13.01,2013-03-19 08:06:00,
2013-03-19 04:11:00,30.5,29.5,30.05,SSE,157,0.0,0.0,96,0.00,,,0.00,VWS V13.01,2013-03-19 08:11:00,
2013-03-19 04:16:00,30.5,29.5,30.04,SSE,157,0.0,0.0,96,0.00,,,0.00,VWS V13.01,2013-03-19 08:16:00,
2013-03-19 04:21:00,30.5,29.5,30.04,SSE,158,0.0,0.0,96,0.00,,,0.00,VWS V13.01,2013-03-19 08:21:00,
2013-03-19 04:26:00,30.6,29.6,30.03,SSE,161,0.0,0.0,96,0.00,,,0.00,VWS V13.01,2013-03-19 08:26:00,
2013-03-19 04:32:00,30.6,29.6,30.04,SSE,161,0.0,0.0,96,0.00,,,0.00,VWS V13.01,2013-03-19 08:32:00,
2013-03-19 04:37:00,30.7,29.7,30.03,ESE,105,0.0,2.0,96,0.00,,,0.00,VWS V13.01,2013-03-19 08:37:00,
2013-03-19 04:42:00,30.8,30.0,30.04,NW,313,0.0,2.0,97,0.00,,,0.00,VWS V13.01,2013-03-19 08:42:00,
2013-03-19 04:47:00,30.8,30.0,30.03,SSE,153,0.0,2.0,97,0.00,,,0.00,VWS V13.01,2013-03-19 08:47:00,
2013-03-19 04:52:00,30.9,30.1,30.01,ESE,105,0.0,2.0,97,0.00,,,0.00,VWS V13.01,2013-03-19 08:52:00,
2013-03-19 04:57:00,30.9,30.1,30.02,ESE,105,0.0,2.0,97,0.00,,,0.00,VWS V13.01,2013-03-19 08:57:00,
2013-03-19 05:02:00,31.0,30.2,30.01,SE,137,0.0,0.0,97,0.00,,,0.00,VWS V13.01,2013-03-19 09:02:00,
2013-03-19 05:07:00,31.0,30.2,30.02,SE,137,0.0,0.0,97,0.00,,,0.00,VWS V13.01,2013-03-19 09:07:00,
2013-03-19 05:12:00,31.1,30.4,30.02,NNE,32,0.0,0.0,97,0.00,,,0.00,VWS V13.01,2013-03-19 09:12:00,
2013-03-19 05:18:00,31.2,30.5,30.02,NE,53,0.0,0.0,97,0.00,,,0.00,VWS V13.01,2013-03-19 09:18:00,
2013-03-19 05:23:00,31.2,30.5,30.02,SSE,164,0.0,0.0,97,0.00,,,0.00,VWS V13.01,2013-03-19 09:23:00,
2013-03-19 05:28:00,31.2,30.5,30.02,SSE,164,0.0,0.0,97,0.00,,,0.00,VWS V13.01,2013-03-19 09:28:00,
2013-03-19 05:33:00,31.2,30.5,30.02,SSE,164,0.0,0.0,97,0.00,,,0.00,VWS V13.01,2013-03-19 09:33:00,
2013-03-19 05:38:00,31.2,30.5,30.02,SSE,164,0.0,0.0,97,0.00,,,0.00,VWS V13.01,2013-03-19 09:38:00,
2013-03-19 05:43:00,31.2,30.5,30.02,SSE,163,0.0,0.0,97,0.00,,,0.00,VWS V13.01,2013-03-19 09:43:00,
2013-03-19 05:48:00,31.2,30.5,30.02,SSE,163,0.0,0.0,97,0.00,,,0.00,VWS V13.01,2013-03-19 09:48:00,
2013-03-19 05:53:00,31.1,30.4,30.02,SSE,163,0.0,0.0,97,0.00,,,0.00,VWS V13.01,2013-03-19 09:53:00,
2013-03-19 05:58:00,31.1,30.4,30.02,SSE,163,0.0,0.0,97,0.00,,,0.00,VWS V13.01,2013-03-19 09:58:00,
2013-03-19 06:03:00,31.1,30.4,30.01,SSE,163,0.0,0.0,97,0.00,,,0.00,VWS V13.01,2013-03-19 10:03:00,
2013-03-19 06:08:00,31.1,30.4,30.01,NE,38,0.0,0.0,97,0.00,,,0.00,VWS V13.01,2013-03-19 10:08:00,
2013-03-19 06:13:00,31.1,30.4,30.01,NE,38,0.0,0.0,97,0.00,,,0.00,VWS V13.01,2013-03-19 10:13:00,
2013-03-19 06:18:00,31.0,30.2,30.00,NE,38,0.0,0.0,97,0.00,,,0.00,VWS V13.01,2013-03-19 10:18:00,
2013-03-19 06:23:00,31.0,30.2,30.00,NE,38,0.0,0.0,97,0.00,,,0.00,VWS V13.01,2013-03-19 10:23:00,
2013-03-19 06:28:00,31.0,30.2,30.00,NE,38,0.0,0.0,97,0.00,,,0.00,VWS V13.01,2013-03-19 10:28:00,
2013-03-19 06:34:00,31.0,30.2,29.99,NE,38,0.0,0.0,97,0.00,,,0.00,VWS V13.01,2013-03-19 10:34:00,
2013-03-19 06:39:00,31.0,30.2,29.99,NE,38,0.0,0.0,97,0.00,,,0.00,VWS V13.01,2013-03-19 10:39:00,
2013-03-19 06:44:00,31.1,30.4,29.99,NE,38,0.0,0.0,97,0.00,,,0.00,VWS V13.01,2013-03-19 10:44:00,
2013-03-19 06:49:00,31.1,30.4,29.99,NE,38,0.0,0.0,97,0.00,,,0.00,VWS V13.01,2013-03-19 10:49:00,
2013-03-19 06:54:00,31.1,30.4,29.99,NE,38,0.0,0.0,97,0.00,,,0.00,VWS V13.01,2013-03-19 10:54:00,
2013-03-19 06:59:00,31.1,30.4,29.99,SE,142,0.0,0.0,97,0.00,,,0.00,VWS V13.01,2013-03-19 10:59:00,
2013-03-19 07:04:00,31.2,30.5,29.98,South,180,0.0,0.0,97,0.00,,,0.00,VWS V13.01,2013-03-19 11:04:00,
2013-03-19 07:09:00,31.2,30.5,29.98,ESE,107,0.0,0.0,97,0.00,,,0.00,VWS V13.01,2013-03-19 11:09:00,
2013-03-19 07:14:00,31.2,30.5,29.98,ESE,107,0.0,0.0,97,0.00,,,0.00,VWS V13.01,2013-03-19 11:14:00,
2013-03-19 07:19:00,31.3,30.5,29.98,ESE,123,0.0,0.0,97,0.00,,,0.00,VWS V13.01,2013-03-19 11:19:00,
2013-03-19 07:24:00,31.4,30.6,29.98,NNE,29,0.0,0.0,97,0.00,,,0.00,VWS V13.01,2013-03-19 11:24:00,
2013-03-19 07:30:00,31.5,30.8,29.97,NNE,19,0.0,0.0,97,0.00,,,0.00,VWS V13.01,2013-03-19 11:30:00,
2013-03-19 07:35:00,31.5,30.8,29.97,NNE,22,0.0,0.0,97,0.00,,,0.00,VWS V13.01,2013-03-19 11:35:00,
2013-03-19 07:40:00,31.6,30.9,29.96,ENE,61,0.0,0.0,97,0.00,,,0.00,VWS V13.01,2013-03-19 11:40:00,
2013-03-19 07:45:00,31.7,31.0,29.96,NE,42,0.0,0.0,97,0.00,,,0.00,VWS V13.01,2013-03-19 11:45:00,
2013-03-19 07:50:00,31.8,31.0,29.96,NE,43,0.0,0.0,97,0.00,,,0.00,VWS V13.01,2013-03-19 11:50:00,
2013-03-19 07:55:00,31.9,31.1,29.95,NE,43,0.0,0.0,97,0.00,,,0.00,VWS V13.01,2013-03-19 11:55:00,
2013-03-19 08:00:00,32.0,31.2,29.95,ESE,106,0.0,0.0,97,0.00,,,0.00,VWS V13.01,2013-03-19 12:00:00,
2013-03-19 08:05:00,32.0,31.2,29.95,ENE,68,0.0,0.0,97,0.00,,,0.00,VWS V13.01,2013-03-19 12:05:00,
2013-03-19 08:10:00,32.1,31.4,29.95,ENE,58,0.0,0.0,97,0.00,,,0.00,VWS V13.01,2013-03-19 12:10:00,
2013-03-19 08:15:00,32.3,31.5,29.95,ENE,69,0.0,0.0,97,0.00,,,0.00,VWS V13.01,2013-03-19 12:15:00,
2013-03-19 08:20:00,32.3,31.5,29.94,ENE,69,0.0,0.0,97,0.00,,,0.00,VWS V13.01,2013-03-19 12:20:00,
2013-03-19 08:25:00,32.4,31.6,29.94,ENE,69,0.0,0.0,97,0.00,,,0.00,VWS V13.01,2013-03-19 12:25:00,
2013-03-19 08:30:00,32.5,31.7,29.93,East,92,0.0,0.0,97,0.00,,,0.00,VWS V13.01,2013-03-19 12:30:00,
2013-03-19 08:35:00,32.6,31.8,29.92,ENE,71,0.0,0.0,97,0.00,,,0.00,VWS V13.01,2013-03-19 12:35:00,
2013-03-19 08:40:00,32.7,31.9,29.93,ENE,68,0.0,0.0,97,0.00,,,0.00,VWS V13.01,2013-03-19 12:40:00,
2013-03-19 08:45:00,32.7,31.7,29.93,NNW,346,0.0,0.0,96,0.00,,,0.00,VWS V13.01,2013-03-19 12:45:00,
2013-03-19 08:50:00,32.8,31.8,29.93,SSE,165,0.0,0.0,96,0.00,,,0.00,VWS V13.01,2013-03-19 12:50:00,
2013-03-19 08:56:00,32.8,31.8,29.92,SE,137,0.0,0.0,96,0.00,,,0.00,VWS V13.01,2013-03-19 12:56:00,
2013-03-19 09:01:00,32.9,31.9,29.92,SSE,155,0.0,0.0,96,0.00,,,0.00,VWS V13.01,2013-03-19 13:01:00,
2013-03-19 09:06:00,32.9,31.9,29.91,SE,134,0.0,0.0,96,0.00,,,0.00,VWS V13.01,2013-03-19 13:06:00,
2013-03-19 09:11:00,32.9,31.9,29.91,NE,37,0.0,2.0,96,0.00,,,0.00,VWS V13.01,2013-03-19 13:11:00,
2013-03-19 09:16:00,32.9,31.9,29.91,ESE,103,0.0,2.0,96,0.00,,,0.00,VWS V13.01,2013-03-19 13:16:00,
2013-03-19 09:21:00,32.9,31.9,29.91,ENE,76,0.0,2.0,96,0.00,,,0.00,VWS V13.01,2013-03-19 13:21:00,
2013-03-19 09:26:00,33.0,32.0,29.90,East,79,0.0,2.0,96,0.00,,,0.00,VWS V13.01,2013-03-19 13:26:00,
2013-03-19 09:32:00,33.0,32.0,29.90,East,85,3.0,5.0,96,0.00,,,0.00,VWS V13.01,2013-03-19 13:32:00,
2013-03-19 09:37:00,33.1,32.1,29.90,ENE,77,1.0,5.0,96,0.00,,,0.00,VWS V13.01,2013-03-19 13:37:00,
2013-03-19 09:42:00,33.2,32.2,29.89,ENE,77,0.0,5.0,96,0.00,,,0.00,VWS V13.01,2013-03-19 13:42:00,
2013-03-19 09:47:00,33.2,32.2,29.89,ENE,69,2.0,5.0,96,0.00,,,0.00,VWS V13.01,2013-03-19 13:47:00,
2013-03-19 09:52:00,33.3,32.3,29.89,ENE,75,1.0,5.0,96,0.00,,,0.00,VWS V13.01,2013-03-19 13:52:00,
2013-03-19 09:57:00,33.3,32.3,29.88,ENE,62,0.0,5.0,96,0.00,,,0.00,VWS V13.01,2013-03-19 13:57:00,
2013-03-19 10:02:00,33.3,32.3,29.88,ENE,61,1.0,9.0,96,0.00,,,0.00,VWS V13.01,2013-03-19 14:02:00,
2013-03-19 10:07:00,33.4,32.4,29.88,NE,54,1.0,9.0,96,0.00,,,0.00,VWS V13.01,2013-03-19 14:07:00,
2013-03-19 10:13:00,33.5,32.5,29.87,East,90,0.0,9.0,96,0.00,,,0.00,VWS V13.01,2013-03-19 14:13:00,
2013-03-19 10:18:00,33.6,32.3,29.87,NW,321,2.0,9.0,95,0.00,,,0.00,VWS V13.01,2013-03-19 14:18:00,
2013-03-19 10:23:00,33.7,32.4,29.87,WNW,288,2.0,9.0,95,0.00,,,0.00,VWS V13.01,2013-03-19 14:23:00,
2013-03-19 10:28:00,33.7,32.4,29.87,NNW,328,0.0,9.0,95,0.00,,,0.00,VWS V13.01,2013-03-19 14:28:00,
2013-03-19 10:33:00,33.7,32.4,29.87,ENE,69,0.0,3.0,95,0.00,,,0.00,VWS V13.01,2013-03-19 14:33:00,
2013-03-19 10:38:00,33.7,32.4,29.87,ENE,68,0.0,3.0,95,0.00,,,0.00,VWS V13.01,2013-03-19 14:38:00,
2013-03-19 10:43:00,33.6,32.3,29.86,NE,54,0.0,3.0,95,0.00,,,0.00,VWS V13.01,2013-03-19 14:43:00,
2013-03-19 10:48:00,33.6,32.3,29.86,NE,42,1.0,4.0,95,0.00,,,0.00,VWS V13.01,2013-03-19 14:48:00,
2013-03-19 10:53:00,33.6,32.6,29.85,NE,42,3.0,4.0,96,0.00,,,0.00,VWS V13.01,2013-03-19 14:53:00,
2013-03-19 10:58:00,33.7,32.7,29.85,NNE,22,0.0,4.0,96,0.00,,,0.00,VWS V13.01,2013-03-19 14:58:00,
2013-03-19 11:03:00,33.8,32.5,29.85,East,94,0.0,2.0,95,0.00,,,0.00,VWS V13.01,2013-03-19 15:03:00,
2013-03-19 11:09:00,33.9,32.6,29.84,East,94,0.0,2.0,95,0.00,,,0.00,VWS V13.01,2013-03-19 15:09:00,
2013-03-19 11:14:00,34.0,32.7,29.84,East,81,2.0,5.0,95,0.00,,,0.00,VWS V13.01,2013-03-19 15:14:00,
2013-03-19 11:19:00,33.9,32.6,29.84,NNE,31,0.0,5.0,95,0.00,,,0.00,VWS V13.01,2013-03-19 15:19:00,
2013-03-19 11:24:00,33.9,32.6,29.83,NE,49,1.0,5.0,95,0.00,,,0.00,VWS V13.01,2013-03-19 15:24:00,
2013-03-19 11:29:00,33.9,32.6,29.83,East,84,1.0,12.0,95,0.00,,,0.00,VWS V13.01,2013-03-19 15:29:00,
2013-03-19 11:34:00,33.9,32.6,29.83,East,84,0.0,3.0,95,0.00,,,0.00,VWS V13.01,2013-03-19 15:34:00,
2013-03-19 11:39:00,34.0,32.7,29.82,East,98,2.0,5.0,95,0.00,,,0.00,VWS V13.01,2013-03-19 15:39:00,
2013-03-19 11:44:00,34.1,32.8,29.82,East,96,4.0,5.0,95,0.00,,,0.00,VWS V13.01,2013-03-19 15:44:00,
2013-03-19 11:49:00,34.1,32.8,29.81,East,84,1.0,6.0,95,0.00,,,0.00,VWS V13.01,2013-03-19 15:49:00,
2013-03-19 11:54:00,34.2,32.9,29.81,ENE,67,1.0,6.0,95,0.00,,,0.00,VWS V13.01,2013-03-19 15:54:00,
2013-03-19 11:59:00,34.3,33.0,29.81,East,90,4.0,6.0,95,0.00,,,0.00,VWS V13.01,2013-03-19 15:59:00,
2013-03-19 12:04:00,34.3,33.0,29.80,NE,42,0.0,3.0,95,0.00,,,0.00,VWS V13.01,2013-03-19 16:04:00,
2013-03-19 12:09:00,34.4,33.1,29.79,ENE,59,2.0,4.0,95,0.00,,,0.00,VWS V13.01,2013-03-19 16:09:00,
2013-03-19 12:14:00,34.4,33.1,29.78,ENE,69,1.0,4.0,95,0.00,,,0.00,VWS V13.01,2013-03-19 16:14:00,
2013-03-19 12:19:00,34.5,33.2,29.78,ESE,111,0.0,9.0,95,0.00,,,0.00,VWS V13.01,2013-03-19 16:19:00,
2013-03-19 12:24:00,34.6,33.0,29.78,ENE,71,2.0,9.0,94,0.00,,,0.00,VWS V13.01,2013-03-19 16:24:00,
2013-03-19 12:30:00,34.6,33.3,29.77,ESE,103,2.0,9.0,95,0.00,,,0.00,VWS V13.01,2013-03-19 16:30:00,
2013-03-19 12:35:00,34.6,33.0,29.77,East,88,2.0,3.0,94,0.00,,,0.00,VWS V13.01,2013-03-19 16:35:00,
2013-03-19 12:40:00,34.6,33.3,29.77,ENE,61,2.0,5.0,95,0.00,,,0.00,VWS V13.01,2013-03-19 16:40:00,
2013-03-19 12:45:00,34.6,33.3,29.76,East,83,1.0,5.0,95,0.00,,,0.00,VWS V13.01,2013-03-19 16:45:00,
2013-03-19 12:50:00,34.6,33.3,29.76,NE,50,2.0,5.0,95,0.00,,,0.00,VWS V13.01,2013-03-19 16:50:00,
2013-03-19 12:55:00,34.7,33.4,29.76,ENE,76,1.0,5.0,95,0.00,,,0.00,VWS V13.01,2013-03-19 16:55:00,
2013-03-19 13:00:00,34.7,33.4,29.77,West,262,3.0,5.0,95,0.00,,,0.00,VWS V13.01,2013-03-19 17:00:00,
2013-03-19 13:05:00,34.7,33.4,29.76,East,96,4.0,4.0,95,0.00,,,0.00,VWS V13.01,2013-03-19 17:05:00,
2013-03-19 13:10:00,34.7,33.4,29.75,ENE,69,4.0,4.0,95,0.00,,,0.00,VWS V13.01,2013-03-19 17:10:00,
2013-03-19 13:15:00,34.8,33.5,29.74,ENE,64,1.0,5.0,95,0.00,,,0.00,VWS V13.01,2013-03-19 17:15:00,
2013-03-19 13:20:00,34.8,33.5,29.74,East,80,3.0,7.0,95,0.00,,,0.00,VWS V13.01,2013-03-19 17:20:00,
2013-03-19 13:25:00,34.8,33.5,29.73,NNE,16,1.0,7.0,95,0.00,,,0.00,VWS V13.01,2013-03-19 17:25:00,
2013-03-19 13:30:00,34.8,33.5,29.72,ENE,76,0.0,7.0,95,0.00,,,0.00,VWS V13.01,2013-03-19 17:30:00,
2013-03-19 13:35:00,34.9,33.6,29.72,ENE,70,1.0,5.0,95,0.00,,,0.00,VWS V13.01,2013-03-19 17:35:00,
2013-03-19 13:41:00,34.9,33.6,29.72,NE,36,0.0,5.0,95,0.00,,,0.00,VWS V13.01,2013-03-19 17:41:00,
2013-03-19 13:46:00,34.9,33.6,29.71,NE,48,0.0,5.0,95,0.00,,-RA,0.00,VWS V13.01,2013-03-19 17:46:00,
2013-03-19 13:51:00,34.8,33.5,29.70,NE,40,2.0,5.0,95,0.00,,-RA,0.00,VWS V13.01,2013-03-19 17:51:00,
2013-03-19 13:57:00,34.8,33.5,29.70,NNE,17,0.0,5.0,95,0.00,,-RA,0.00,VWS V13.01,2013-03-19 17:57:00,
2013-03-19 14:02:00,34.6,33.3,29.70,NNE,16,1.0,3.0,95,0.00,,-RA,0.00,VWS V13.01,2013-03-19 18:02:00,
2013-03-19 14:07:00,34.5,33.2,29.70,NE,45,3.0,3.0,95,0.00,,-RA,0.00,VWS V13.01,2013-03-19 18:07:00,
2013-03-19 14:12:00,34.4,33.1,29.70,NE,46,3.0,4.0,95,0.00,,-RA,0.00,VWS V13.01,2013-03-19 18:12:00,
2013-03-19 14:17:00,34.3,33.0,29.70,ENE,57,1.0,4.0,95,0.00,,-RA,0.00,VWS V13.01,2013-03-19 18:17:00,
2013-03-19 14:22:00,34.3,33.3,29.69,NNE,30,1.0,5.0,96,0.00,,-RA,0.00,VWS V13.01,2013-03-19 18:22:00,
2013-03-19 14:27:00,34.3,33.3,29.68,NE,38,0.0,6.0,96,0.00,,-RA,0.00,VWS V13.01,2013-03-19 18:27:00,
2013-03-19 14:32:00,34.3,33.3,29.68,NNE,29,4.0,7.0,96,0.01,,-RA,0.01,VWS V13.01,2013-03-19 18:32:00,
2013-03-19 14:38:00,34.2,33.2,29.72,NNW,344,0.0,7.0,96,0.01,,-RA,0.01,VWS V13.01,2013-03-19 18:38:00,
2013-03-19 14:43:00,34.2,33.2,29.74,North,349,6.0,7.0,96,0.02,,-RA,0.02,VWS V13.01,2013-03-19 18:43:00,
2013-03-19 14:48:00,33.9,32.9,29.75,NW,321,1.0,7.0,96,0.02,,-RA,0.02,VWS V13.01,2013-03-19 18:48:00,
2013-03-19 14:53:00,33.8,32.8,29.75,North,355,1.0,7.0,96,0.02,,-RA,0.02,VWS V13.01,2013-03-19 18:53:00,
2013-03-19 14:58:00,33.7,32.7,29.74,North,355,2.0,7.0,96,0.02,,-RA,0.02,VWS V13.01,2013-03-19 18:58:00,
2013-03-19 15:03:00,33.6,32.6,29.73,NNE,30,2.0,4.0,96,0.03,,-RA,0.03,VWS V13.01,2013-03-19 19:03:00,
2013-03-19 15:08:00,33.6,32.6,29.71,NE,38,1.0,5.0,96,0.03,,-RA,0.03,VWS V13.01,2013-03-19 19:08:00,
2013-03-19 15:13:00,33.6,32.6,29.71,NNE,19,4.0,5.0,96,0.03,,-RA,0.03,VWS V13.01,2013-03-19 19:13:00,
2013-03-19 15:18:00,33.7,32.7,29.71,NNE,28,1.0,5.0,96,0.03,,-RA,0.03,VWS V13.01,2013-03-19 19:18:00,
2013-03-19 15:23:00,33.6,32.6,29.71,NE,42,2.0,5.0,96,0.03,,-RA,0.03,VWS V13.01,2013-03-19 19:23:00,
2013-03-19 15:28:00,33.5,32.5,29.70,NE,36,5.0,7.0,96,0.03,,-RA,0.03,VWS V13.01,2013-03-19 19:28:00,
2013-03-19 15:33:00,33.4,32.4,29.71,NNE,24,1.0,2.0,96,0.02,,-RA,0.03,VWS V13.01,2013-03-19 19:33:00,
2013-03-19 15:38:00,33.3,32.3,29.71,North,11,2.0,5.0,96,0.02,,-RA,0.03,VWS V13.01,2013-03-19 19:38:00,
2013-03-19 15:43:00,33.3,32.3,29.71,NNW,338,2.0,5.0,96,0.03,,-RA,0.04,VWS V13.01,2013-03-19 19:43:00,
2013-03-19 15:48:00,33.3,32.3,29.71,NE,54,5.0,6.0,96,0.03,,,0.04,VWS V13.01,2013-03-19 19:48:00,
2013-03-19 15:53:00,33.2,32.2,29.71,NE,35,2.0,6.0,96,0.03,,,0.04,VWS V13.01,2013-03-19 19:53:00,
2013-03-19 15:59:00,33.2,32.2,29.67,NE,38,6.0,6.0,96,0.03,,,0.04,VWS V13.01,2013-03-19 19:59:00,
2013-03-19 16:04:00,33.1,32.1,29.63,NE,55,2.0,6.0,96,0.01,,,0.04,VWS V13.01,2013-03-19 20:04:00,
2013-03-19 16:09:00,33.3,32.5,29.60,North,360,2.0,9.0,97,0.01,,,0.04,VWS V13.01,2013-03-19 20:09:00,
2013-03-19 16:14:00,33.5,32.7,29.62,ENE,67,4.0,9.0,97,0.01,,,0.04,VWS V13.01,2013-03-19 20:14:00,
2013-03-19 16:19:00,33.6,32.6,29.63,NNE,21,2.0,9.0,96,0.02,,,0.05,VWS V13.01,2013-03-19 20:19:00,
2013-03-19 16:24:00,33.9,32.9,29.63,NNW,336,0.0,9.0,96,0.02,,,0.05,VWS V13.01,2013-03-19 20:24:00,
2013-03-19 16:29:00,34.0,33.0,29.63,NE,50,3.0,10.0,96,0.02,,,0.05,VWS V13.01,2013-03-19 20:29:00,
2013-03-19 16:34:00,34.1,33.1,29.63,NNW,338,1.0,10.0,96,0.02,,,0.05,VWS V13.01,2013-03-19 20:34:00,
2013-03-19 16:39:00,34.3,33.3,29.62,NE,56,4.0,10.0,96,0.02,,,0.05,VWS V13.01,2013-03-19 20:39:00,
2013-03-19 16:44:00,34.4,33.4,29.61,NE,37,1.0,10.0,96,0.02,,,0.05,VWS V13.01,2013-03-19 20:44:00,
2013-03-19 16:49:00,34.5,33.2,29.61,ENE,61,1.0,10.0,95,0.02,,,0.05,VWS V13.01,2013-03-19 20:49:00,
2013-03-19 16:54:00,34.5,33.2,29.60,NNE,26,5.0,10.0,95,0.02,,,0.05,VWS V13.01,2013-03-19 20:54:00,
2013-03-19 16:59:00,34.6,33.3,29.60,NE,45,1.0,10.0,95,0.02,,,0.05,VWS V13.01,2013-03-19 20:59:00,
2013-03-19 17:04:00,34.5,33.2,29.60,ENE,59,6.0,13.0,95,0.01,,,0.05,VWS V13.01,2013-03-19 21:04:00,
2013-03-19 17:09:00,34.4,33.1,29.61,NE,52,4.0,14.0,95,0.01,,,0.05,VWS V13.01,2013-03-19 21:09:00,
2013-03-19 17:15:00,34.4,33.1,29.60,NE,44,2.0,14.0,95,0.01,,,0.05,VWS V13.01,2013-03-19 21:15:00,
2013-03-19 17:20:00,34.2,32.9,29.60,ENE,65,0.0,14.0,95,0.01,,,0.05,VWS V13.01,2013-03-19 21:20:00,
2013-03-19 17:25:00,34.1,32.8,29.60,NE,36,5.0,14.0,95,0.01,,,0.05,VWS V13.01,2013-03-19 21:25:00,
2013-03-19 17:30:00,34.0,32.7,29.60,NE,48,6.0,14.0,95,0.01,,,0.05,VWS V13.01,2013-03-19 21:30:00,
2013-03-19 17:35:00,33.9,32.6,29.61,NNE,28,2.0,5.0,95,0.00,,,0.05,VWS V13.01,2013-03-19 21:35:00,
2013-03-19 17:40:00,33.9,32.6,29.61,NE,55,3.0,7.0,95,0.00,,,0.05,VWS V13.01,2013-03-19 21:40:00,
2013-03-19 17:45:00,33.8,32.5,29.61,ENE,75,1.0,7.0,95,0.00,,,0.05,VWS V13.01,2013-03-19 21:45:00,
2013-03-19 17:50:00,33.7,32.4,29.61,ENE,59,2.0,13.0,95,0.01,,,0.06,VWS V13.01,2013-03-19 21:50:00,
2013-03-19 17:55:00,33.7,32.4,29.61,NE,51,5.0,13.0,95,0.01,,,0.06,VWS V13.01,2013-03-19 21:55:00,
2013-03-19 18:00:00,33.7,32.4,29.61,NNE,13,1.0,13.0,95,0.01,,,0.06,VWS V13.01,2013-03-19 22:00:00,
2013-03-19 18:05:00,33.5,32.2,29.61,NE,55,1.0,10.0,95,0.01,,,0.06,VWS V13.01,2013-03-19 22:05:00,
2013-03-19 18:10:00,33.5,32.5,29.61,NNE,24,0.0,10.0,96,0.02,,,0.07,VWS V13.01,2013-03-19 22:10:00,
2013-03-19 18:15:00,33.5,32.2,29.61,NE,36,3.0,10.0,95,0.02,,,0.07,VWS V13.01,2013-03-19 22:15:00,
2013-03-19 18:20:00,33.4,32.4,29.61,NE,38,1.0,10.0,96,0.03,,,0.08,VWS V13.01,2013-03-19 22:20:00,
2013-03-19 18:25:00,33.4,32.4,29.61,NE,38,1.0,10.0,96,0.03,,,0.08,VWS V13.01,2013-03-19 22:25:00,
2013-03-19 18:31:00,33.3,32.3,29.61,NE,51,2.0,10.0,96,0.03,,,0.08,VWS V13.01,2013-03-19 22:31:00,
2013-03-19 18:36:00,33.2,32.2,29.61,NE,34,1.0,6.0,96,0.03,,,0.08,VWS V13.01,2013-03-19 22:36:00,
2013-03-19 18:41:00,33.2,32.2,29.61,NE,50,3.0,7.0,96,0.04,,,0.09,VWS V13.01,2013-03-19 22:41:00,
2013-03-19 18:46:00,33.1,32.1,29.61,NE,46,2.0,7.0,96,0.04,,-RA,0.09,VWS V13.01,2013-03-19 22:46:00,
2013-03-19 18:51:00,33.0,32.0,29.61,NNE,31,0.0,7.0,96,0.04,,-RA,0.09,VWS V13.01,2013-03-19 22:51:00,
2013-03-19 18:56:00,32.9,31.9,29.61,NE,41,1.0,7.0,96,0.04,,-RA,0.09,VWS V13.01,2013-03-19 22:56:00,
2013-03-19 19:01:00,32.9,31.9,29.61,NNE,31,0.0,7.0,96,0.04,,-RA,0.09,VWS V13.01,2013-03-19 23:01:00,
2013-03-19 19:06:00,32.8,31.8,29.61,NNE,32,0.0,4.0,96,0.03,,-RA,0.09,VWS V13.01,2013-03-19 23:06:00,
2013-03-19 19:12:00,32.8,32.0,29.61,NNE,22,2.0,6.0,97,0.03,,-RA,0.09,VWS V13.01,2013-03-19 23:12:00,
2013-03-19 19:17:00,32.8,32.0,29.61,NNE,24,0.0,6.0,97,0.03,,-RA,0.09,VWS V13.01,2013-03-19 23:17:00,
2013-03-19 19:22:00,32.8,32.0,29.61,NNE,30,0.0,6.0,97,0.04,,-RA,0.10,VWS V13.01,2013-03-19 23:22:00,
2013-03-19 19:27:00,32.8,32.0,29.61,NNE,15,1.0,6.0,97,0.04,,-RA,0.10,VWS V13.01,2013-03-19 23:27:00,
2013-03-19 19:32:00,32.8,32.0,29.62,North,5,3.0,3.0,97,0.04,,-RA,0.10,VWS V13.01,2013-03-19 23:32:00,
2013-03-19 19:37:00,32.8,32.0,29.62,NNE,18,4.0,4.0,97,0.02,,-RA,0.10,VWS V13.01,2013-03-19 23:37:00,
2013-03-19 19:42:00,32.8,32.0,29.61,NW,321,0.0,4.0,97,0.02,,-RA,0.10,VWS V13.01,2013-03-19 23:42:00,
2013-03-19 19:47:00,32.8,32.0,29.61,NE,53,0.0,6.0,97,0.02,,,0.10,VWS V13.01,2013-03-19 23:47:00,
2013-03-19 19:52:00,32.7,31.9,29.60,NNE,19,0.0,6.0,97,0.02,,,0.10,VWS V13.01,2013-03-19 23:52:00,
2013-03-19 19:57:00,32.7,31.9,29.61,ENE,71,0.0,6.0,97,0.02,,,0.10,VWS V13.01,2013-03-19 23:57:00,
2013-03-19 20:02:00,32.7,31.9,29.62,North,355,0.0,1.0,97,0.01,,,0.10,VWS V13.01,2013-03-20 00:02:00,
2013-03-19 20:07:00,32.7,31.9,29.61,NNE,25,2.0,6.0,97,0.01,,,0.10,VWS V13.01,2013-03-20 00:07:00,
2013-03-19 20:12:00,32.7,31.9,29.61,NNE,27,0.0,6.0,97,0.01,,,0.10,VWS V13.01,2013-03-20 00:12:00,
2013-03-19 20:17:00,32.7,31.9,29.61,SW,232,0.0,6.0,97,0.01,,,0.10,VWS V13.01,2013-03-20 00:17:00,
2013-03-19 20:22:00,32.7,31.9,29.60,NE,53,0.0,6.0,97,0.01,,,0.10,VWS V13.01,2013-03-20 00:22:00,
2013-03-19 20:27:00,32.6,31.8,29.61,NNW,334,0.0,6.0,97,0.01,,,0.10,VWS V13.01,2013-03-20 00:27:00,
2013-03-19 20:32:00,32.6,31.8,29.62,North,351,1.0,8.0,97,0.00,,,0.10,VWS V13.01,2013-03-20 00:32:00,
2013-03-19 20:38:00,32.6,31.8,29.62,NW,311,0.0,10.0,97,0.00,,,0.10,VWS V13.01,2013-03-20 00:38:00,
2013-03-19 20:43:00,32.6,31.8,29.62,NNW,340,2.0,10.0,97,0.01,,,0.11,VWS V13.01,2013-03-20 00:43:00,
2013-03-19 20:48:00,32.6,31.8,29.62,NNW,336,2.0,10.0,97,0.01,,,0.11,VWS V13.01,2013-03-20 00:48:00,
2013-03-19 20:53:00,32.5,31.7,29.63,North,355,0.0,10.0,97,0.01,,,0.11,VWS V13.01,2013-03-20 00:53:00,
2013-03-19 20:58:00,32.5,31.7,29.64,NNW,346,0.0,10.0,97,0.01,,,0.11,VWS V13.01,2013-03-20 00:58:00,
2013-03-19 21:03:00,32.5,31.7,29.64,NNW,340,1.0,3.0,97,0.01,,,0.11,VWS V13.01,2013-03-20 01:03:00,
2013-03-19 21:08:00,32.5,31.7,29.64,NNW,335,1.0,3.0,97,0.02,,,0.12,VWS V13.01,2013-03-20 01:08:00,
2013-03-19 21:13:00,32.4,31.6,29.65,North,355,0.0,5.0,97,0.02,,,0.12,VWS V13.01,2013-03-20 01:13:00,
2013-03-19 21:18:00,32.3,31.5,29.65,North,349,0.0,5.0,97,0.02,,,0.12,VWS V13.01,2013-03-20 01:18:00,
2013-03-19 21:23:00,32.3,31.5,29.64,NNW,333,0.0,5.0,97,0.02,,,0.12,VWS V13.01,2013-03-20 01:23:00,
2013-03-19 21:28:00,32.2,31.5,29.65,NNW,338,0.0,5.0,97,0.02,,,0.12,VWS V13.01,2013-03-20 01:28:00,
2013-03-19 21:33:00,32.0,31.2,29.65,NNW,330,1.0,5.0,97,0.02,,,0.12,VWS V13.01,2013-03-20 01:33:00,
2013-03-19 21:38:00,31.7,30.7,29.66,West,279,0.0,6.0,96,0.02,,,0.12,VWS V13.01,2013-03-20 01:38:00,
2013-03-19 21:43:00,31.5,30.5,29.66,NNW,336,0.0,7.0,96,0.02,,,0.12,VWS V13.01,2013-03-20 01:43:00,
2013-03-19 21:49:00,31.3,30.3,29.66,NW,306,1.0,7.0,96,0.02,,,0.12,VWS V13.01,2013-03-20 01:49:00,
2013-03-19 21:54:00,31.1,30.1,29.67,North,350,2.0,10.0,96,0.02,,,0.13,VWS V13.01,2013-03-20 01:54:00,
2013-03-19 21:59:00,31.0,30.0,29.67,WNW,300,0.0,10.0,96,0.03,,,0.13,VWS V13.01,2013-03-20 01:59:00,
2013-03-19 22:04:00,30.9,29.9,29.67,North,355,0.0,6.0,96,0.02,,,0.13,VWS V13.01,2013-03-20 02:04:00,
2013-03-19 22:09:00,30.6,29.3,29.67,NNW,332,1.0,6.0,95,0.02,,,0.13,VWS V13.01,2013-03-20 02:09:00,
2013-03-19 22:14:00,30.4,29.1,29.67,NW,323,10.0,10.0,95,0.02,,,0.13,VWS V13.01,2013-03-20 02:14:00,
2013-03-19 22:19:00,30.1,28.8,29.67,NE,43,0.0,10.0,95,0.02,,,0.13,VWS V13.01,2013-03-20 02:19:00,
2013-03-19 22:24:00,29.9,28.6,29.67,NW,315,1.0,10.0,95,0.02,,,0.13,VWS V13.01,2013-03-20 02:24:00,
2013-03-19 22:29:00,29.7,28.5,29.67,NW,325,0.0,10.0,95,0.02,,,0.13,VWS V13.01,2013-03-20 02:29:00,
2013-03-19 22:34:00,29.7,28.5,29.67,NW,314,0.0,6.0,95,0.01,,,0.13,VWS V13.01,2013-03-20 02:34:00,
2013-03-19 22:39:00,29.6,28.4,29.67,North,355,0.0,7.0,95,0.01,,,0.13,VWS V13.01,2013-03-20 02:39:00,
2013-03-19 22:44:00,29.6,28.4,29.67,North,5,1.0,7.0,95,0.01,,,0.13,VWS V13.01,2013-03-20 02:44:00,
2013-03-19 22:49:00,29.5,28.2,29.67,North,9,1.0,7.0,95,0.01,,,0.13,VWS V13.01,2013-03-20 02:49:00,
2013-03-19 22:54:00,29.3,27.8,29.67,NW,317,2.0,7.0,94,0.01,,,0.13,VWS V13.01,2013-03-20 02:54:00,
2013-03-19 23:00:00,29.2,27.7,29.67,NE,46,0.0,9.0,94,0.02,,,0.14,VWS V13.01,2013-03-20 03:00:00,
2013-03-19 23:05:00,29.2,28.0,29.67,NNE,17,0.0,1.0,95,0.01,,,0.14,VWS V13.01,2013-03-20 03:05:00,
2013-03-19 23:10:00,29.1,27.9,29.67,NW,323,1.0,4.0,95,0.01,,,0.14,VWS V13.01,2013-03-20 03:10:00,
2013-03-19 23:15:00,29.0,27.8,29.67,North,355,1.0,5.0,95,0.01,,,0.14,VWS V13.01,2013-03-20 03:15:00,
2013-03-19 23:20:00,29.0,27.5,29.67,North,5,1.0,6.0,94,0.01,,,0.14,VWS V13.01,2013-03-20 03:20:00,
2013-03-19 23:25:00,28.9,27.4,29.66,North,11,0.0,6.0,94,0.01,,,0.14,VWS V13.01,2013-03-20 03:25:00,
2013-03-19 23:30:00,28.8,27.3,29.66,NNE,32,0.0,7.0,94,0.01,,,0.14,VWS V13.01,2013-03-20 03:30:00,
2013-03-19 23:35:00,28.7,27.2,29.67,NW,326,0.0,4.0,94,0.01,,,0.14,VWS V13.01,2013-03-20 03:35:00,
2013-03-19 23:40:00,28.6,27.1,29.67,NE,47,2.0,7.0,94,0.01,,,0.14,VWS V13.01,2013-03-20 03:40:00,
2013-03-19 23:45:00,28.4,26.6,29.67,NE,36,0.0,7.0,93,0.01,,OVC060,0.14,VWS V13.01,2013-03-20 03:45:00,
2013-03-19 23:50:00,28.2,26.4,29.67,North,355,2.0,7.0,93,0.01,,OVC060,0.14,VWS V13.01,2013-03-20 03:50:00,
2013-03-19 23:55:00,28.0,26.2,29.67,North,9,0.0,7.0,93,0.01,,OVC060,0.14,VWS V13.01,2013-03-20 03:55:00,